Take Maru No82 — JI3650 — position and weather

sailwx.info

Track history (hours):
 
Tides and Currents Weather Stations Pressure Air Temp Water Temp Dewpoint Dewpoint Depression Visibility Wind Speed Wind Dir Waves Ship Positions

Take Maru No82

Last reported at 2017-Nov-20 00:30 UTC. Time now 2017-Nov-20 15:26 UTC.
Position N 35°40' E 139°59'.

Length 42 m; draft 4 m.

Type: Tug. MMSI: 431300812.

Date/timePositionNaut miles runAvg speedWind from/ knotsBaromVisibWave heightAir tempDewpointWater temp
2017-Nov-20 00:30N 35°40' E 139°59'0 0.0
2017-Nov-20 00:00N 35°40' E 139°59'0 0.2
2017-Nov-19 23:30N 35°40' E 139°59'0 0.0
2017-Nov-19 22:59N 35°40' E 139°59'0 0.0
2017-Nov-19 22:30N 35°40' E 139°59'0 0.0
2017-Nov-19 21:59N 35°40' E 139°59'0 0.0
2017-Nov-19 20:55N 35°40' E 139°59'0 0.0
2017-Nov-19 20:30N 35°40' E 139°59'0 0.0
2017-Nov-19 19:55N 35°40' E 139°59'0 0.0
2017-Nov-19 19:30N 35°40' E 139°59'0 0.0
2017-Nov-19 19:00N 35°40' E 139°59'0 0.0
2017-Nov-19 18:27N 35°40' E 139°59'0 0.0
2017-Nov-19 17:39N 35°40' E 139°59'0 0.0
2017-Nov-19 17:29N 35°40' E 139°59'0 0.0
2017-Nov-19 15:44N 35°40' E 139°59'0 0.0
2017-Nov-19 15:20N 35°40' E 139°59'0 0.0
2017-Nov-19 14:59N 35°40' E 139°59'0 0.0
2017-Nov-19 14:30N 35°40' E 139°59'0 0.0
2017-Nov-19 13:58N 35°40' E 139°59'0 0.0
2017-Nov-19 13:30N 35°40' E 139°59'0 0.0
2017-Nov-19 13:00N 35°40' E 139°59'0 0.0
2017-Nov-19 12:18N 35°40' E 139°59'0 0.0
2017-Nov-19 11:51N 35°40' E 139°59'0 0.0
2017-Nov-19 11:27N 35°40' E 139°59'0 0.0
2017-Nov-19 08:37N 35°40' E 139°59'0 0.0
2017-Nov-19 07:13N 35°40' E 139°59'0 0.0
2017-Nov-19 04:51N 35°40' E 139°59'0 0.0
2017-Nov-19 04:30N 35°40' E 139°59'0 0.1
2017-Nov-19 03:59N 35°40' E 139°59'1 2.5
2017-Nov-19 03:30N 35°39' E 139°59'3 5.8
2017-Nov-19 03:00N 35°36' E 139°58'3 5.4
2017-Nov-19 02:30N 35°35' E 139°55'2 4.4
2017-Nov-19 02:00N 35°35' E 139°52'2 4.5
2017-Nov-19 01:29N 35°36' E 139°50'2 3.2
2017-Nov-19 01:00N 35°37' E 139°48'0 0.4
2017-Nov-19 00:30N 35°37' E 139°48'0 0.1
2017-Nov-19 00:00N 35°37' E 139°48'0 0.0
2017-Nov-18 23:30N 35°37' E 139°48'0 0.0
2017-Nov-18 22:58N 35°37' E 139°48'0 0.0
2017-Nov-18 22:27N 35°37' E 139°48'0 0.0
2017-Nov-18 21:55N 35°37' E 139°48'0 0.0
2017-Nov-18 21:26N 35°37' E 139°48'0 0.0
2017-Nov-18 20:59N 35°37' E 139°48'0 0.0
2017-Nov-18 20:28N 35°37' E 139°48'0 0.0
2017-Nov-18 19:58N 35°37' E 139°48'0 0.0
2017-Nov-18 19:29N 35°37' E 139°48'0 0.0
2017-Nov-18 18:57N 35°37' E 139°48'0 0.0
2017-Nov-18 18:28N 35°37' E 139°48'0 0.0
2017-Nov-18 17:37N 35°37' E 139°48'0 0.0
2017-Nov-18 17:22N 35°37' E 139°48'0 0.0
2017-Nov-18 16:20N 35°37' E 139°48'0 0.0
2017-Nov-18 16:00N 35°37' E 139°48'0 0.0
2017-Nov-18 09:51N 35°37' E 139°48'0 0.0
2017-Nov-18 08:41N 35°37' E 139°48'  
2017-Nov-15 22:59N 35°37' E 139°48'0 0.0
2017-Nov-15 22:25N 35°37' E 139°48'0 0.0
2017-Nov-15 22:00N 35°37' E 139°48'0 0.0
2017-Nov-15 21:30N 35°37' E 139°48'0 0.0
2017-Nov-15 21:00N 35°37' E 139°48'0 0.0
2017-Nov-15 20:29N 35°37' E 139°48'0 0.0
2017-Nov-15 19:44N 35°37' E 139°48'0 0.2
2017-Nov-15 19:30N 35°37' E 139°48'0 0.1
2017-Nov-15 18:54N 35°37' E 139°48'0 0.0
2017-Nov-15 13:54N 35°37' E 139°48'0 0.0
2017-Nov-15 12:45N 35°37' E 139°48'0 0.0
2017-Nov-15 10:59N 35°37' E 139°48'0 0.0
2017-Nov-15 06:08N 35°37' E 139°48'0 0.2
2017-Nov-15 04:45N 35°37' E 139°48'1 4.8
2017-Nov-15 04:31N 35°37' E 139°49'3 6.6
2017-Nov-15 04:00N 35°35' E 139°53'2 2.0
2017-Nov-15 03:00N 35°34' E 139°55'2 4.0
2017-Nov-15 02:28N 35°32' E 139°54'2 4.1
2017-Nov-15 02:00N 35°30' E 139°53'2 4.0
2017-Nov-15 01:30N 35°29' E 139°51'2 3.6
2017-Nov-15 01:00N 35°28' E 139°49'2 4.5
2017-Nov-15 00:28N 35°30' E 139°48'2 5.1
2017-Nov-15 00:00N 35°30' E 139°45'0 0.6
2017-Nov-14 23:30N 35°30' E 139°45'0 0.1
2017-Nov-14 23:00N 35°30' E 139°45'0 0.1
2017-Nov-14 22:30N 35°30' E 139°45'0 0.1
2017-Nov-14 22:00N 35°30' E 139°45'0 0.0
2017-Nov-14 21:30N 35°30' E 139°45'0 0.0
2017-Nov-14 21:00N 35°30' E 139°45'0 0.0
2017-Nov-14 20:30N 35°30' E 139°45'0 0.0
2017-Nov-14 20:00N 35°30' E 139°45'0 0.0
2017-Nov-14 19:30N 35°30' E 139°45'0 0.0
2017-Nov-14 19:00N 35°30' E 139°45'0 0.0
2017-Nov-14 18:30N 35°30' E 139°45'0 0.0
2017-Nov-14 18:00N 35°30' E 139°45'0 0.0
2017-Nov-14 17:30N 35°30' E 139°45'0 0.0
2017-Nov-14 17:00N 35°30' E 139°45'0 0.0
2017-Nov-14 16:30N 35°30' E 139°45'0 0.0
2017-Nov-14 16:00N 35°30' E 139°45'0 0.0
2017-Nov-14 15:30N 35°30' E 139°45'0 0.0
2017-Nov-14 15:00N 35°30' E 139°45'0 0.0
2017-Nov-14 14:30N 35°30' E 139°45'0 0.0
2017-Nov-14 14:00N 35°30' E 139°45'0 0.0
2017-Nov-14 13:30N 35°30' E 139°45'0 0.0
2017-Nov-14 13:00N 35°30' E 139°45'0 0.0
2017-Nov-14 12:30N 35°30' E 139°45'0 0.0
2017-Nov-14 12:00N 35°30' E 139°45'0 0.0
2017-Nov-14 11:30N 35°30' E 139°45'0 0.0
2017-Nov-14 11:00N 35°30' E 139°45'0 0.0
2017-Nov-14 10:30N 35°30' E 139°45'0 0.0
2017-Nov-14 10:00N 35°30' E 139°45'0 0.0
2017-Nov-14 09:30N 35°30' E 139°45'0 0.0
2017-Nov-14 09:00N 35°30' E 139°45'0 0.0
2017-Nov-14 08:30N 35°30' E 139°45'0 0.0
2017-Nov-14 08:00N 35°30' E 139°45'0 0.0
2017-Nov-14 07:30N 35°30' E 139°45'0 0.0
2017-Nov-14 07:00N 35°30' E 139°45'0 0.0
2017-Nov-14 06:30N 35°30' E 139°45'0 0.1
2017-Nov-14 06:00N 35°30' E 139°45'0 0.1
2017-Nov-14 05:30N 35°30' E 139°45'0 0.0
2017-Nov-14 05:00N 35°30' E 139°45'0 0.1
2017-Nov-14 04:30N 35°30' E 139°45'0 0.1
2017-Nov-14 04:00N 35°30' E 139°45'0 0.1
2017-Nov-14 03:30N 35°30' E 139°45'0 0.1
2017-Nov-14 03:00N 35°30' E 139°45'0 0.0
2017-Nov-14 02:30N 35°30' E 139°45'0 0.1
2017-Nov-14 02:00N 35°30' E 139°45'0 0.0
2017-Nov-14 01:30N 35°30' E 139°45'0 0.1
2017-Nov-14 01:00N 35°30' E 139°45'1 1.1
2017-Nov-14 00:30N 35°30' E 139°45'2 4.6
2017-Nov-14 00:00N 35°30' E 139°48'2 3.9
2017-Nov-13 23:30N 35°28' E 139°46'1 2.5
2017-Nov-13 23:00N 35°29' E 139°46'0 0.3
2017-Nov-13 22:30N 35°30' E 139°46'0 0.1
2017-Nov-13 22:00N 35°30' E 139°46'0 0.0
2017-Nov-13 02:00N 35°29' E 139°45'0 0.1
2017-Nov-13 01:31N 35°29' E 139°46'0 0.2
2017-Nov-13 01:00N 35°29' E 139°46'0 0.3
2017-Nov-13 00:30N 35°29' E 139°46'2 4.8
2017-Nov-13 00:00N 35°27' E 139°45'3 5.9
2017-Nov-12 23:30N 35°27' E 139°41'1 2.3
2017-Nov-12 23:01N 35°27' E 139°40'0 0.1
2017-Nov-12 22:30N 35°27' E 139°40'0 0.0
2017-Nov-12 22:00N 35°27' E 139°40'0 0.0
2017-Nov-12 21:30N 35°27' E 139°40'0 0.0
2017-Nov-12 21:00N 35°27' E 139°40'0 0.0
2017-Nov-12 20:30N 35°27' E 139°40'0 0.0
2017-Nov-12 20:00N 35°27' E 139°40'0 0.0
2017-Nov-12 19:30N 35°27' E 139°40'0 0.0
2017-Nov-12 19:00N 35°27' E 139°40'0 0.0
2017-Nov-12 18:30N 35°27' E 139°40'0 0.0
2017-Nov-12 18:00N 35°27' E 139°40'0 0.0
2017-Nov-12 17:30N 35°27' E 139°40'0 0.0
2017-Nov-12 17:00N 35°27' E 139°40'0 0.0
2017-Nov-12 16:30N 35°27' E 139°40'0 0.0
2017-Nov-12 16:00N 35°27' E 139°40'0 0.0
2017-Nov-12 15:30N 35°27' E 139°40'0 0.0
2017-Nov-12 15:00N 35°27' E 139°40'0 0.0
2017-Nov-12 14:30N 35°27' E 139°40'0 0.0
2017-Nov-12 14:00N 35°27' E 139°40'0 0.0
2017-Nov-12 13:30N 35°27' E 139°40'0 0.0
2017-Nov-12 13:00N 35°27' E 139°40'0 0.0
2017-Nov-12 12:30N 35°27' E 139°40'0 0.0
2017-Nov-12 12:00N 35°27' E 139°40'0 0.0
2017-Nov-12 11:30N 35°27' E 139°40'0 0.0
2017-Nov-12 11:00N 35°27' E 139°40'0 0.0
2017-Nov-12 10:30N 35°27' E 139°40'0 0.0
2017-Nov-12 10:00N 35°27' E 139°40'0 0.0
2017-Nov-12 09:30N 35°27' E 139°40'0 0.0
2017-Nov-12 09:00N 35°27' E 139°40'0 0.0
2017-Nov-12 08:30N 35°27' E 139°40'0 0.0
2017-Nov-12 08:00N 35°27' E 139°40'0 0.0
2017-Nov-12 07:30N 35°27' E 139°40'0 0.0
2017-Nov-12 07:00N 35°27' E 139°40'0 0.0
2017-Nov-12 06:30N 35°27' E 139°40'0 0.0
2017-Nov-12 06:00N 35°27' E 139°40'0 0.0
2017-Nov-12 05:30N 35°27' E 139°40'0 0.0
2017-Nov-12 05:00N 35°27' E 139°40'0 0.0
2017-Nov-12 04:30N 35°27' E 139°40'0 0.0
2017-Nov-12 04:00N 35°27' E 139°40'0 0.0
2017-Nov-12 03:30N 35°27' E 139°40'0 0.0
2017-Nov-12 03:00N 35°27' E 139°40'0 0.0
2017-Nov-12 02:30N 35°27' E 139°40'0 0.0
2017-Nov-12 02:00N 35°27' E 139°40'0 0.0
2017-Nov-12 01:30N 35°27' E 139°40'0 0.0
2017-Nov-12 01:00N 35°27' E 139°40'0 0.0
2017-Nov-12 00:30N 35°27' E 139°40'0 0.0
2017-Nov-12 00:00N 35°27' E 139°40'0 0.0
2017-Nov-11 23:30N 35°27' E 139°40'0 0.0
2017-Nov-11 23:00N 35°27' E 139°40'0 0.0
2017-Nov-11 22:30N 35°27' E 139°40'0 0.0
2017-Nov-11 22:00N 35°27' E 139°40'0 0.0
2017-Nov-11 21:30N 35°27' E 139°40'0 0.0
2017-Nov-11 21:00N 35°27' E 139°40'0 0.0
2017-Nov-11 20:30N 35°27' E 139°40'0 0.0
2017-Nov-11 20:00N 35°27' E 139°40'0 0.0
2017-Nov-11 19:30N 35°27' E 139°40'0 0.0
2017-Nov-11 19:00N 35°27' E 139°40'0 0.0
2017-Nov-11 18:30N 35°27' E 139°40'0 0.0
2017-Nov-11 18:00N 35°27' E 139°40'0 0.0
2017-Nov-11 17:30N 35°27' E 139°40'0 0.0
2017-Nov-11 17:00N 35°27' E 139°40'0 0.0
2017-Nov-11 16:30N 35°27' E 139°40'0 0.0
2017-Nov-11 16:00N 35°27' E 139°40'0 0.0
2017-Nov-11 15:30N 35°27' E 139°40'0 0.0
2017-Nov-11 15:00N 35°27' E 139°40'0 0.0
2017-Nov-11 14:30N 35°27' E 139°40'0 0.0
2017-Nov-11 14:00N 35°27' E 139°40'0 0.0
2017-Nov-11 13:30N 35°27' E 139°40'0 0.0
2017-Nov-11 13:00N 35°27' E 139°40'0 0.0
2017-Nov-11 12:30N 35°27' E 139°40'0 0.0
2017-Nov-11 12:00N 35°27' E 139°40'0 0.0
2017-Nov-11 11:30N 35°27' E 139°40'0 0.0
2017-Nov-11 11:00N 35°27' E 139°40'0 0.0
2017-Nov-11 10:30N 35°27' E 139°40'0 0.0
2017-Nov-11 10:00N 35°27' E 139°40'0 0.0
2017-Nov-11 09:30N 35°27' E 139°40'0 0.0
2017-Nov-11 09:00N 35°27' E 139°40'0 0.0
2017-Nov-11 08:30N 35°27' E 139°40'0 0.0
2017-Nov-11 08:00N 35°27' E 139°40'0 0.0
2017-Nov-11 07:30N 35°27' E 139°40'0 0.0
2017-Nov-11 07:00N 35°27' E 139°40'0 0.0
2017-Nov-11 06:30N 35°27' E 139°40'0 0.0
2017-Nov-11 06:00N 35°27' E 139°40'0 0.0
2017-Nov-11 05:30N 35°27' E 139°40'0 0.0
2017-Nov-11 05:00N 35°27' E 139°40'0 0.0
2017-Nov-11 04:30N 35°27' E 139°40'0 0.0
2017-Nov-11 04:00N 35°27' E 139°40'0 0.0
2017-Nov-11 03:30N 35°27' E 139°40'0 0.0
2017-Nov-11 03:00N 35°27' E 139°40'0 0.0
2017-Nov-11 02:30N 35°27' E 139°40'0 0.0
2017-Nov-11 02:00N 35°27' E 139°40'0 0.0
2017-Nov-11 01:30N 35°27' E 139°40'0 0.0
2017-Nov-11 01:00N 35°27' E 139°40'0 0.0
2017-Nov-11 00:30N 35°27' E 139°40'0 0.0
2017-Nov-11 00:00N 35°27' E 139°40'0 0.0
2017-Nov-10 23:30N 35°27' E 139°40'0 0.0
2017-Nov-10 23:00N 35°27' E 139°40'0 0.0
2017-Nov-10 22:30N 35°27' E 139°40'0 0.0
2017-Nov-10 22:00N 35°27' E 139°40'0 0.0
2017-Nov-10 21:30N 35°27' E 139°40'0 0.0
2017-Nov-10 21:00N 35°27' E 139°40'0 0.0
2017-Nov-10 20:30N 35°27' E 139°40'0 0.0
2017-Nov-10 20:00N 35°27' E 139°40'0 0.0
2017-Nov-10 19:30N 35°27' E 139°40'0 0.0
2017-Nov-10 19:00N 35°27' E 139°40'0 0.0
2017-Nov-10 18:30N 35°27' E 139°40'0 0.0
2017-Nov-10 18:00N 35°27' E 139°40'0 0.0
2017-Nov-10 17:30N 35°27' E 139°40'0 0.0
2017-Nov-10 17:00N 35°27' E 139°40'0 0.0
2017-Nov-10 16:30N 35°27' E 139°40'0 0.0
2017-Nov-10 16:00N 35°27' E 139°40'0 0.0
2017-Nov-10 15:30N 35°27' E 139°40'0 0.0
2017-Nov-10 15:00N 35°27' E 139°40'0 0.0
2017-Nov-10 14:30N 35°27' E 139°40'0 0.0
2017-Nov-10 14:00N 35°27' E 139°40'0 0.0
2017-Nov-10 13:30N 35°27' E 139°40'0 0.0
2017-Nov-10 13:00N 35°27' E 139°40'0 0.0
2017-Nov-10 12:30N 35°27' E 139°40'0 0.0
2017-Nov-10 12:00N 35°27' E 139°40'0 0.0
2017-Nov-10 11:30N 35°27' E 139°40'0 0.0
2017-Nov-10 11:00N 35°27' E 139°40'0 0.0
2017-Nov-10 10:30N 35°27' E 139°40'0 0.0
2017-Nov-10 10:00N 35°27' E 139°40'0 0.0
2017-Nov-10 09:30N 35°27' E 139°40'0 0.0
2017-Nov-10 09:00N 35°27' E 139°40'0 0.0
2017-Nov-10 08:30N 35°27' E 139°40'5 9.2
2017-Nov-10 08:00N 35°24' E 139°43'612.0
2017-Nov-10 07:30N 35°18' E 139°45'611.7
2017-Nov-10 07:00N 35°12' E 139°47'612.3
2017-Nov-10 06:30N 35°06' E 139°47'612.1
2017-Nov-10 06:00N 35°00' E 139°50'2 4.0
2017-Nov-10 05:26N 35°02' E 139°48'410.1
2017-Nov-10 05:00N 35°06' E 139°47'510.7
2017-Nov-10 04:30N 35°11' E 139°46'510.9
2017-Nov-10 04:00N 35°17' E 139°44'510.5
2017-Nov-10 03:30N 35°21' E 139°41'510.2
2017-Nov-10 03:00N 35°26' E 139°42'2 3.3
2017-Nov-10 02:30N 35°27' E 139°40'1 1.3
2017-Nov-10 02:00N 35°27' E 139°40'3 6.2
2017-Nov-10 01:30N 35°27' E 139°44'4 7.1
2017-Nov-10 01:00N 35°28' E 139°48'  
Track history (hours):
 
Tides and Currents Weather Stations Pressure Air Temp Water Temp Dewpoint Dewpoint Depression Visibility Wind Speed Wind Dir Waves Ship Positions

Take Maru No82

Last reported at 2017-Nov-20 00:30 UTC. Time now 2017-Nov-20 15:26 UTC.
Position N 35°40' E 139°59'.

Length 42 m; draft 4 m.

Type: Tug. MMSI: 431300812.

Date/timePositionNaut miles runAvg speedWind from/ knotsBaromVisibWave heightAir tempDewpointWater temp
2017-Nov-20 00:30N 35°40' E 139°59'0 0.0
2017-Nov-20 00:00N 35°40' E 139°59'0 0.2
2017-Nov-19 23:30N 35°40' E 139°59'0 0.0
2017-Nov-19 22:59N 35°40' E 139°59'0 0.0
2017-Nov-19 22:30N 35°40' E 139°59'0 0.0
2017-Nov-19 21:59N 35°40' E 139°59'0 0.0
2017-Nov-19 20:55N 35°40' E 139°59'0 0.0
2017-Nov-19 20:30N 35°40' E 139°59'0 0.0
2017-Nov-19 19:55N 35°40' E 139°59'0 0.0
2017-Nov-19 19:30N 35°40' E 139°59'0 0.0
2017-Nov-19 19:00N 35°40' E 139°59'0 0.0
2017-Nov-19 18:27N 35°40' E 139°59'0 0.0
2017-Nov-19 17:39N 35°40' E 139°59'0 0.0
2017-Nov-19 17:29N 35°40' E 139°59'0 0.0
2017-Nov-19 15:44N 35°40' E 139°59'0 0.0
2017-Nov-19 15:20N 35°40' E 139°59'0 0.0
2017-Nov-19 14:59N 35°40' E 139°59'0 0.0
2017-Nov-19 14:30N 35°40' E 139°59'0 0.0
2017-Nov-19 13:58N 35°40' E 139°59'0 0.0
2017-Nov-19 13:30N 35°40' E 139°59'0 0.0
2017-Nov-19 13:00N 35°40' E 139°59'0 0.0
2017-Nov-19 12:18N 35°40' E 139°59'0 0.0
2017-Nov-19 11:51N 35°40' E 139°59'0 0.0
2017-Nov-19 11:27N 35°40' E 139°59'0 0.0
2017-Nov-19 08:37N 35°40' E 139°59'0 0.0
2017-Nov-19 07:13N 35°40' E 139°59'0 0.0
2017-Nov-19 04:51N 35°40' E 139°59'0 0.0
2017-Nov-19 04:30N 35°40' E 139°59'0 0.1
2017-Nov-19 03:59N 35°40' E 139°59'1 2.5
2017-Nov-19 03:30N 35°39' E 139°59'3 5.8
2017-Nov-19 03:00N 35°36' E 139°58'3 5.4
2017-Nov-19 02:30N 35°35' E 139°55'2 4.4
2017-Nov-19 02:00N 35°35' E 139°52'2 4.5
2017-Nov-19 01:29N 35°36' E 139°50'2 3.2
2017-Nov-19 01:00N 35°37' E 139°48'0 0.4
2017-Nov-19 00:30N 35°37' E 139°48'0 0.1
2017-Nov-19 00:00N 35°37' E 139°48'0 0.0
2017-Nov-18 23:30N 35°37' E 139°48'0 0.0
2017-Nov-18 22:58N 35°37' E 139°48'0 0.0
2017-Nov-18 22:27N 35°37' E 139°48'0 0.0
2017-Nov-18 21:55N 35°37' E 139°48'0 0.0
2017-Nov-18 21:26N 35°37' E 139°48'0 0.0
2017-Nov-18 20:59N 35°37' E 139°48'0 0.0
2017-Nov-18 20:28N 35°37' E 139°48'0 0.0
2017-Nov-18 19:58N 35°37' E 139°48'0 0.0
2017-Nov-18 19:29N 35°37' E 139°48'0 0.0
2017-Nov-18 18:57N 35°37' E 139°48'0 0.0
2017-Nov-18 18:28N 35°37' E 139°48'0 0.0
2017-Nov-18 17:37N 35°37' E 139°48'0 0.0
2017-Nov-18 17:22N 35°37' E 139°48'0 0.0
2017-Nov-18 16:20N 35°37' E 139°48'0 0.0
2017-Nov-18 16:00N 35°37' E 139°48'0 0.0
2017-Nov-18 09:51N 35°37' E 139°48'0 0.0
2017-Nov-18 08:41N 35°37' E 139°48'  
2017-Nov-15 22:59N 35°37' E 139°48'0 0.0
2017-Nov-15 22:25N 35°37' E 139°48'0 0.0
2017-Nov-15 22:00N 35°37' E 139°48'0 0.0
2017-Nov-15 21:30N 35°37' E 139°48'0 0.0
2017-Nov-15 21:00N 35°37' E 139°48'0 0.0
2017-Nov-15 20:29N 35°37' E 139°48'0 0.0
2017-Nov-15 19:44N 35°37' E 139°48'0 0.2
2017-Nov-15 19:30N 35°37' E 139°48'0 0.1
2017-Nov-15 18:54N 35°37' E 139°48'0 0.0
2017-Nov-15 13:54N 35°37' E 139°48'0 0.0
2017-Nov-15 12:45N 35°37' E 139°48'0 0.0
2017-Nov-15 10:59N 35°37' E 139°48'0 0.0
2017-Nov-15 06:08N 35°37' E 139°48'0 0.2
2017-Nov-15 04:45N 35°37' E 139°48'1 4.8
2017-Nov-15 04:31N 35°37' E 139°49'3 6.6
2017-Nov-15 04:00N 35°35' E 139°53'2 2.0
2017-Nov-15 03:00N 35°34' E 139°55'2 4.0
2017-Nov-15 02:28N 35°32' E 139°54'2 4.1
2017-Nov-15 02:00N 35°30' E 139°53'2 4.0
2017-Nov-15 01:30N 35°29' E 139°51'2 3.6
2017-Nov-15 01:00N 35°28' E 139°49'2 4.5
2017-Nov-15 00:28N 35°30' E 139°48'2 5.1
2017-Nov-15 00:00N 35°30' E 139°45'0 0.6
2017-Nov-14 23:30N 35°30' E 139°45'0 0.1
2017-Nov-14 23:00N 35°30' E 139°45'0 0.1
2017-Nov-14 22:30N 35°30' E 139°45'0 0.1
2017-Nov-14 22:00N 35°30' E 139°45'0 0.0
2017-Nov-14 21:30N 35°30' E 139°45'0 0.0
2017-Nov-14 21:00N 35°30' E 139°45'0 0.0
2017-Nov-14 20:30N 35°30' E 139°45'0 0.0
2017-Nov-14 20:00N 35°30' E 139°45'0 0.0
2017-Nov-14 19:30N 35°30' E 139°45'0 0.0
2017-Nov-14 19:00N 35°30' E 139°45'0 0.0
2017-Nov-14 18:30N 35°30' E 139°45'0 0.0
2017-Nov-14 18:00N 35°30' E 139°45'0 0.0
2017-Nov-14 17:30N 35°30' E 139°45'0 0.0
2017-Nov-14 17:00N 35°30' E 139°45'0 0.0
2017-Nov-14 16:30N 35°30' E 139°45'0 0.0
2017-Nov-14 16:00N 35°30' E 139°45'0 0.0
2017-Nov-14 15:30N 35°30' E 139°45'0 0.0
2017-Nov-14 15:00N 35°30' E 139°45'0 0.0
2017-Nov-14 14:30N 35°30' E 139°45'0 0.0
2017-Nov-14 14:00N 35°30' E 139°45'0 0.0
2017-Nov-14 13:30N 35°30' E 139°45'0 0.0
2017-Nov-14 13:00N 35°30' E 139°45'0 0.0
2017-Nov-14 12:30N 35°30' E 139°45'0 0.0
2017-Nov-14 12:00N 35°30' E 139°45'0 0.0
2017-Nov-14 11:30N 35°30' E 139°45'0 0.0
2017-Nov-14 11:00N 35°30' E 139°45'0 0.0
2017-Nov-14 10:30N 35°30' E 139°45'0 0.0
2017-Nov-14 10:00N 35°30' E 139°45'0 0.0
2017-Nov-14 09:30N 35°30' E 139°45'0 0.0
2017-Nov-14 09:00N 35°30' E 139°45'0 0.0
2017-Nov-14 08:30N 35°30' E 139°45'0 0.0
2017-Nov-14 08:00N 35°30' E 139°45'0 0.0
2017-Nov-14 07:30N 35°30' E 139°45'0 0.0
2017-Nov-14 07:00N 35°30' E 139°45'0 0.0
2017-Nov-14 06:30N 35°30' E 139°45'0 0.1
2017-Nov-14 06:00N 35°30' E 139°45'0 0.1
2017-Nov-14 05:30N 35°30' E 139°45'0 0.0
2017-Nov-14 05:00N 35°30' E 139°45'0 0.1
2017-Nov-14 04:30N 35°30' E 139°45'0 0.1
2017-Nov-14 04:00N 35°30' E 139°45'0 0.1
2017-Nov-14 03:30N 35°30' E 139°45'0 0.1
2017-Nov-14 03:00N 35°30' E 139°45'0 0.0
2017-Nov-14 02:30N 35°30' E 139°45'0 0.1
2017-Nov-14 02:00N 35°30' E 139°45'0 0.0
2017-Nov-14 01:30N 35°30' E 139°45'0 0.1
2017-Nov-14 01:00N 35°30' E 139°45'1 1.1
2017-Nov-14 00:30N 35°30' E 139°45'2 4.6
2017-Nov-14 00:00N 35°30' E 139°48'2 3.9
2017-Nov-13 23:30N 35°28' E 139°46'1 2.5
2017-Nov-13 23:00N 35°29' E 139°46'0 0.3
2017-Nov-13 22:30N 35°30' E 139°46'0 0.1
2017-Nov-13 22:00N 35°30' E 139°46'0 0.0
2017-Nov-13 02:00N 35°29' E 139°45'0 0.1
2017-Nov-13 01:31N 35°29' E 139°46'0 0.2
2017-Nov-13 01:00N 35°29' E 139°46'0 0.3
2017-Nov-13 00:30N 35°29' E 139°46'2 4.8
2017-Nov-13 00:00N 35°27' E 139°45'3 5.9
2017-Nov-12 23:30N 35°27' E 139°41'1 2.3
2017-Nov-12 23:01N 35°27' E 139°40'0 0.1
2017-Nov-12 22:30N 35°27' E 139°40'0 0.0
2017-Nov-12 22:00N 35°27' E 139°40'0 0.0
2017-Nov-12 21:30N 35°27' E 139°40'0 0.0
2017-Nov-12 21:00N 35°27' E 139°40'0 0.0
2017-Nov-12 20:30N 35°27' E 139°40'0 0.0
2017-Nov-12 20:00N 35°27' E 139°40'0 0.0
2017-Nov-12 19:30N 35°27' E 139°40'0 0.0
2017-Nov-12 19:00N 35°27' E 139°40'0 0.0
2017-Nov-12 18:30N 35°27' E 139°40'0 0.0
2017-Nov-12 18:00N 35°27' E 139°40'0 0.0
2017-Nov-12 17:30N 35°27' E 139°40'0 0.0
2017-Nov-12 17:00N 35°27' E 139°40'0 0.0
2017-Nov-12 16:30N 35°27' E 139°40'0 0.0
2017-Nov-12 16:00N 35°27' E 139°40'0 0.0
2017-Nov-12 15:30N 35°27' E 139°40'0 0.0
2017-Nov-12 15:00N 35°27' E 139°40'0 0.0
2017-Nov-12 14:30N 35°27' E 139°40'0 0.0
2017-Nov-12 14:00N 35°27' E 139°40'0 0.0
2017-Nov-12 13:30N 35°27' E 139°40'0 0.0
2017-Nov-12 13:00N 35°27' E 139°40'0 0.0
2017-Nov-12 12:30N 35°27' E 139°40'0 0.0
2017-Nov-12 12:00N 35°27' E 139°40'0 0.0
2017-Nov-12 11:30N 35°27' E 139°40'0 0.0
2017-Nov-12 11:00N 35°27' E 139°40'0 0.0
2017-Nov-12 10:30N 35°27' E 139°40'0 0.0
2017-Nov-12 10:00N 35°27' E 139°40'0 0.0
2017-Nov-12 09:30N 35°27' E 139°40'0 0.0
2017-Nov-12 09:00N 35°27' E 139°40'0 0.0
2017-Nov-12 08:30N 35°27' E 139°40'0 0.0
2017-Nov-12 08:00N 35°27' E 139°40'0 0.0
2017-Nov-12 07:30N 35°27' E 139°40'0 0.0
2017-Nov-12 07:00N 35°27' E 139°40'0 0.0
2017-Nov-12 06:30N 35°27' E 139°40'0 0.0
2017-Nov-12 06:00N 35°27' E 139°40'0 0.0
2017-Nov-12 05:30N 35°27' E 139°40'0 0.0
2017-Nov-12 05:00N 35°27' E 139°40'0 0.0
2017-Nov-12 04:30N 35°27' E 139°40'0 0.0
2017-Nov-12 04:00N 35°27' E 139°40'0 0.0
2017-Nov-12 03:30N 35°27' E 139°40'0 0.0
2017-Nov-12 03:00N 35°27' E 139°40'0 0.0
2017-Nov-12 02:30N 35°27' E 139°40'0 0.0
2017-Nov-12 02:00N 35°27' E 139°40'0 0.0
2017-Nov-12 01:30N 35°27' E 139°40'0 0.0
2017-Nov-12 01:00N 35°27' E 139°40'0 0.0
2017-Nov-12 00:30N 35°27' E 139°40'0 0.0
2017-Nov-12 00:00N 35°27' E 139°40'0 0.0
2017-Nov-11 23:30N 35°27' E 139°40'0 0.0
2017-Nov-11 23:00N 35°27' E 139°40'0 0.0
2017-Nov-11 22:30N 35°27' E 139°40'0 0.0
2017-Nov-11 22:00N 35°27' E 139°40'0 0.0
2017-Nov-11 21:30N 35°27' E 139°40'0 0.0
2017-Nov-11 21:00N 35°27' E 139°40'0 0.0
2017-Nov-11 20:30N 35°27' E 139°40'0 0.0
2017-Nov-11 20:00N 35°27' E 139°40'0 0.0
2017-Nov-11 19:30N 35°27' E 139°40'0 0.0
2017-Nov-11 19:00N 35°27' E 139°40'0 0.0
2017-Nov-11 18:30N 35°27' E 139°40'0 0.0
2017-Nov-11 18:00N 35°27' E 139°40'0 0.0
2017-Nov-11 17:30N 35°27' E 139°40'0 0.0
2017-Nov-11 17:00N 35°27' E 139°40'0 0.0
2017-Nov-11 16:30N 35°27' E 139°40'0 0.0
2017-Nov-11 16:00N 35°27' E 139°40'0 0.0
2017-Nov-11 15:30N 35°27' E 139°40'0 0.0
2017-Nov-11 15:00N 35°27' E 139°40'0 0.0
2017-Nov-11 14:30N 35°27' E 139°40'0 0.0
2017-Nov-11 14:00N 35°27' E 139°40'0 0.0
2017-Nov-11 13:30N 35°27' E 139°40'0 0.0
2017-Nov-11 13:00N 35°27' E 139°40'0 0.0
2017-Nov-11 12:30N 35°27' E 139°40'0 0.0
2017-Nov-11 12:00N 35°27' E 139°40'0 0.0
2017-Nov-11 11:30N 35°27' E 139°40'0 0.0
2017-Nov-11 11:00N 35°27' E 139°40'0 0.0
2017-Nov-11 10:30N 35°27' E 139°40'0 0.0
2017-Nov-11 10:00N 35°27' E 139°40'0 0.0
2017-Nov-11 09:30N 35°27' E 139°40'0 0.0
2017-Nov-11 09:00N 35°27' E 139°40'0 0.0
2017-Nov-11 08:30N 35°27' E 139°40'0 0.0
2017-Nov-11 08:00N 35°27' E 139°40'0 0.0
2017-Nov-11 07:30N 35°27' E 139°40'0 0.0
2017-Nov-11 07:00N 35°27' E 139°40'0 0.0
2017-Nov-11 06:30N 35°27' E 139°40'0 0.0
2017-Nov-11 06:00N 35°27' E 139°40'0 0.0
2017-Nov-11 05:30N 35°27' E 139°40'0 0.0
2017-Nov-11 05:00N 35°27' E 139°40'0 0.0
2017-Nov-11 04:30N 35°27' E 139°40'0 0.0
2017-Nov-11 04:00N 35°27' E 139°40'0 0.0
2017-Nov-11 03:30N 35°27' E 139°40'0 0.0
2017-Nov-11 03:00N 35°27' E 139°40'0 0.0
2017-Nov-11 02:30N 35°27' E 139°40'0 0.0
2017-Nov-11 02:00N 35°27' E 139°40'0 0.0
2017-Nov-11 01:30N 35°27' E 139°40'0 0.0
2017-Nov-11 01:00N 35°27' E 139°40'0 0.0
2017-Nov-11 00:30N 35°27' E 139°40'0 0.0
2017-Nov-11 00:00N 35°27' E 139°40'0 0.0
2017-Nov-10 23:30N 35°27' E 139°40'0 0.0
2017-Nov-10 23:00N 35°27' E 139°40'0 0.0
2017-Nov-10 22:30N 35°27' E 139°40'0 0.0
2017-Nov-10 22:00N 35°27' E 139°40'0 0.0
2017-Nov-10 21:30N 35°27' E 139°40'0 0.0
2017-Nov-10 21:00N 35°27' E 139°40'0 0.0
2017-Nov-10 20:30N 35°27' E 139°40'0 0.0
2017-Nov-10 20:00N 35°27' E 139°40'0 0.0
2017-Nov-10 19:30N 35°27' E 139°40'0 0.0
2017-Nov-10 19:00N 35°27' E 139°40'0 0.0
2017-Nov-10 18:30N 35°27' E 139°40'0 0.0
2017-Nov-10 18:00N 35°27' E 139°40'0 0.0
2017-Nov-10 17:30N 35°27' E 139°40'0 0.0
2017-Nov-10 17:00N 35°27' E 139°40'0 0.0
2017-Nov-10 16:30N 35°27' E 139°40'0 0.0
2017-Nov-10 16:00N 35°27' E 139°40'0 0.0
2017-Nov-10 15:30N 35°27' E 139°40'0 0.0
2017-Nov-10 15:00N 35°27' E 139°40'0 0.0
2017-Nov-10 14:30N 35°27' E 139°40'0 0.0
2017-Nov-10 14:00N 35°27' E 139°40'0 0.0
2017-Nov-10 13:30N 35°27' E 139°40'0 0.0
2017-Nov-10 13:00N 35°27' E 139°40'0 0.0
2017-Nov-10 12:30N 35°27' E 139°40'0 0.0
2017-Nov-10 12:00N 35°27' E 139°40'0 0.0
2017-Nov-10 11:30N 35°27' E 139°40'0 0.0
2017-Nov-10 11:00N 35°27' E 139°40'0 0.0
2017-Nov-10 10:30N 35°27' E 139°40'0 0.0
2017-Nov-10 10:00N 35°27' E 139°40'0 0.0
2017-Nov-10 09:30N 35°27' E 139°40'0 0.0
2017-Nov-10 09:00N 35°27' E 139°40'0 0.0
2017-Nov-10 08:30N 35°27' E 139°40'5 9.2
2017-Nov-10 08:00N 35°24' E 139°43'612.0
2017-Nov-10 07:30N 35°18' E 139°45'611.7
2017-Nov-10 07:00N 35°12' E 139°47'612.3
2017-Nov-10 06:30N 35°06' E 139°47'612.1
2017-Nov-10 06:00N 35°00' E 139°50'2 4.0
2017-Nov-10 05:26N 35°02' E 139°48'410.1
2017-Nov-10 05:00N 35°06' E 139°47'510.7
2017-Nov-10 04:30N 35°11' E 139°46'510.9
2017-Nov-10 04:00N 35°17' E 139°44'510.5
2017-Nov-10 03:30N 35°21' E 139°41'510.2
2017-Nov-10 03:00N 35°26' E 139°42'2 3.3
2017-Nov-10 02:30N 35°27' E 139°40'1 1.3
2017-Nov-10 02:00N 35°27' E 139°40'3 6.2
2017-Nov-10 01:30N 35°27' E 139°44'4 7.1
2017-Nov-10 01:00N 35°28' E 139°48'  

Dump ship's entire track history